sensor_id;sensor_type;location;lat;lon;timestamp;P1;durP1;ratioP1;P2;durP2;ratioP2
58196;SDS011;43999;51.660;5.616;2023-10-13T00:02:21;16.70;;;14.27;;
58196;SDS011;43999;51.660;5.616;2023-10-13T00:05:10;18.50;;;14.48;;
58196;SDS011;43999;51.660;5.616;2023-10-13T00:07:59;18.25;;;15.55;;
58196;SDS011;43999;51.660;5.616;2023-10-13T00:10:47;19.65;;;15.57;;
58196;SDS011;43999;51.660;5.616;2023-10-13T00:13:35;20.25;;;18.05;;
58196;SDS011;43999;51.660;5.616;2023-10-13T00:16:36;18.25;;;16.20;;
58196;SDS011;43999;51.660;5.616;2023-10-13T00:19:27;18.77;;;16.92;;
58196;SDS011;43999;51.660;5.616;2023-10-13T00:22:31;18.55;;;16.75;;
58196;SDS011;43999;51.660;5.616;2023-10-13T00:25:20;19.35;;;16.92;;
58196;SDS011;43999;51.660;5.616;2023-10-13T00:28:13;17.98;;;15.40;;
58196;SDS011;43999;51.660;5.616;2023-10-13T00:31:10;16.33;;;14.73;;
58196;SDS011;43999;51.660;5.616;2023-10-13T00:33:58;18.75;;;16.73;;
58196;SDS011;43999;51.660;5.616;2023-10-13T00:37:15;17.08;;;13.43;;
58196;SDS011;43999;51.660;5.616;2023-10-13T00:40:07;15.40;;;12.82;;
58196;SDS011;43999;51.660;5.616;2023-10-13T00:43:06;16.98;;;13.57;;
58196;SDS011;43999;51.660;5.616;2023-10-13T00:46:06;17.73;;;15.35;;
58196;SDS011;43999;51.660;5.616;2023-10-13T00:48:56;16.67;;;14.18;;
58196;SDS011;43999;51.660;5.616;2023-10-13T00:51:44;18.77;;;14.73;;
58196;SDS011;43999;51.660;5.616;2023-10-13T00:54:34;15.70;;;12.07;;
58196;SDS011;43999;51.660;5.616;2023-10-13T00:57:24;16.80;;;14.27;;
58196;SDS011;43999;51.660;5.616;2023-10-13T01:00:20;17.35;;;13.45;;
58196;SDS011;43999;51.660;5.616;2023-10-13T01:03:15;17.45;;;14.70;;
58196;SDS011;43999;51.660;5.616;2023-10-13T01:06:13;18.42;;;13.45;;
58196;SDS011;43999;51.660;5.616;2023-10-13T01:09:04;15.30;;;13.50;;
58196;SDS011;43999;51.660;5.616;2023-10-13T01:12:03;13.25;;;11.95;;
58196;SDS011;43999;51.660;5.616;2023-10-13T01:14:51;15.45;;;13.70;;
58196;SDS011;43999;51.660;5.616;2023-10-13T01:17:39;18.50;;;14.23;;
58196;SDS011;43999;51.660;5.616;2023-10-13T01:20:27;13.65;;;12.13;;
58196;SDS011;43999;51.660;5.616;2023-10-13T01:23:15;18.65;;;13.65;;
58196;SDS011;43999;51.660;5.616;2023-10-13T01:26:06;16.58;;;12.90;;
58196;SDS011;43999;51.660;5.616;2023-10-13T01:28:57;17.52;;;13.00;;
58196;SDS011;43999;51.660;5.616;2023-10-13T01:31:45;15.65;;;13.82;;
58196;SDS011;43999;51.660;5.616;2023-10-13T01:34:33;17.25;;;15.32;;
58196;SDS011;43999;51.660;5.616;2023-10-13T01:37:27;16.02;;;11.13;;
58196;SDS011;43999;51.660;5.616;2023-10-13T01:40:15;15.20;;;12.93;;
58196;SDS011;43999;51.660;5.616;2023-10-13T01:43:06;15.00;;;10.98;;
58196;SDS011;43999;51.660;5.616;2023-10-13T01:45:57;13.63;;;10.77;;
58196;SDS011;43999;51.660;5.616;2023-10-13T01:48:46;14.13;;;11.40;;
58196;SDS011;43999;51.660;5.616;2023-10-13T01:51:34;13.40;;;10.35;;
58196;SDS011;43999;51.660;5.616;2023-10-13T01:54:22;17.10;;;12.77;;
58196;SDS011;43999;51.660;5.616;2023-10-13T01:57:10;14.38;;;10.60;;
58196;SDS011;43999;51.660;5.616;2023-10-13T02:00:05;14.98;;;11.00;;
58196;SDS011;43999;51.660;5.616;2023-10-13T02:03:06;14.93;;;11.05;;
58196;SDS011;43999;51.660;5.616;2023-10-13T02:06:05;15.43;;;11.93;;
58196;SDS011;43999;51.660;5.616;2023-10-13T02:08:53;14.98;;;10.45;;
58196;SDS011;43999;51.660;5.616;2023-10-13T02:11:45;12.88;;;10.25;;
58196;SDS011;43999;51.660;5.616;2023-10-13T02:14:37;12.48;;;10.40;;
58196;SDS011;43999;51.660;5.616;2023-10-13T02:17:28;12.57;;;10.10;;
58196;SDS011;43999;51.660;5.616;2023-10-13T02:20:27;12.20;;;10.45;;
58196;SDS011;43999;51.660;5.616;2023-10-13T02:23:18;15.32;;;11.52;;
58196;SDS011;43999;51.660;5.616;2023-10-13T02:26:07;13.98;;;9.43;;
58196;SDS011;43999;51.660;5.616;2023-10-13T02:29:00;15.23;;;10.23;;
58196;SDS011;43999;51.660;5.616;2023-10-13T02:31:54;11.52;;;10.13;;
58196;SDS011;43999;51.660;5.616;2023-10-13T02:34:42;15.82;;;10.88;;
58196;SDS011;43999;51.660;5.616;2023-10-13T02:37:32;14.15;;;11.55;;
58196;SDS011;43999;51.660;5.616;2023-10-13T02:40:22;14.98;;;12.50;;
58196;SDS011;43999;51.660;5.616;2023-10-13T02:43:10;14.43;;;11.32;;
58196;SDS011;43999;51.660;5.616;2023-10-13T02:46:02;14.95;;;13.40;;
58196;SDS011;43999;51.660;5.616;2023-10-13T02:48:51;13.68;;;12.25;;
58196;SDS011;43999;51.660;5.616;2023-10-13T02:51:42;14.25;;;12.75;;
58196;SDS011;43999;51.660;5.616;2023-10-13T02:54:36;16.52;;;13.18;;
58196;SDS011;43999;51.660;5.616;2023-10-13T02:57:29;17.35;;;15.55;;
58196;SDS011;43999;51.660;5.616;2023-10-13T03:00:21;18.40;;;16.35;;
58196;SDS011;43999;51.660;5.616;2023-10-13T03:03:11;26.20;;;16.90;;
58196;SDS011;43999;51.660;5.616;2023-10-13T03:06:06;24.60;;;19.17;;
58196;SDS011;43999;51.660;5.616;2023-10-13T03:08:54;24.23;;;20.60;;
58196;SDS011;43999;51.660;5.616;2023-10-13T03:12:09;24.80;;;19.60;;
58196;SDS011;43999;51.660;5.616;2023-10-13T03:15:02;21.33;;;17.95;;
58196;SDS011;43999;51.660;5.616;2023-10-13T03:18:04;24.83;;;19.48;;
58196;SDS011;43999;51.660;5.616;2023-10-13T03:20:52;21.85;;;19.60;;
58196;SDS011;43999;51.660;5.616;2023-10-13T03:23:45;28.17;;;20.05;;
58196;SDS011;43999;51.660;5.616;2023-10-13T03:26:34;27.77;;;23.02;;
58196;SDS011;43999;51.660;5.616;2023-10-13T03:29:25;29.95;;;19.48;;
58196;SDS011;43999;51.660;5.616;2023-10-13T03:32:17;33.75;;;23.88;;
58196;SDS011;43999;51.660;5.616;2023-10-13T03:35:05;30.40;;;20.60;;
58196;SDS011;43999;51.660;5.616;2023-10-13T03:38:00;25.20;;;20.48;;
58196;SDS011;43999;51.660;5.616;2023-10-13T03:40:50;30.58;;;22.50;;
58196;SDS011;43999;51.660;5.616;2023-10-13T03:43:58;30.25;;;22.17;;
58196;SDS011;43999;51.660;5.616;2023-10-13T03:46:59;28.88;;;23.27;;
58196;SDS011;43999;51.660;5.616;2023-10-13T03:50:05;32.90;;;22.95;;
58196;SDS011;43999;51.660;5.616;2023-10-13T03:53:03;32.53;;;22.50;;
58196;SDS011;43999;51.660;5.616;2023-10-13T03:55:53;28.67;;;22.63;;
58196;SDS011;43999;51.660;5.616;2023-10-13T03:58:55;34.25;;;25.10;;
58196;SDS011;43999;51.660;5.616;2023-10-13T04:01:55;36.58;;;29.23;;
58196;SDS011;43999;51.660;5.616;2023-10-13T04:04:47;35.45;;;27.85;;
58196;SDS011;43999;51.660;5.616;2023-10-13T04:07:36;35.08;;;27.73;;
58196;SDS011;43999;51.660;5.616;2023-10-13T04:10:47;41.25;;;29.27;;
58196;SDS011;43999;51.660;5.616;2023-10-13T04:13:41;44.30;;;31.80;;
58196;SDS011;43999;51.660;5.616;2023-10-13T04:16:47;40.53;;;29.33;;
58196;SDS011;43999;51.660;5.616;2023-10-13T04:19:41;36.33;;;29.00;;
58196;SDS011;43999;51.660;5.616;2023-10-13T04:22:47;42.28;;;31.27;;
58196;SDS011;43999;51.660;5.616;2023-10-13T04:25:37;35.50;;;27.17;;
58196;SDS011;43999;51.660;5.616;2023-10-13T04:28:28;38.63;;;28.92;;
58196;SDS011;43999;51.660;5.616;2023-10-13T04:34:33;35.95;;;29.27;;
58196;SDS011;43999;51.660;5.616;2023-10-13T04:37:26;34.95;;;27.17;;
58196;SDS011;43999;51.660;5.616;2023-10-13T04:40:22;36.50;;;29.83;;
58196;SDS011;43999;51.660;5.616;2023-10-13T04:43:12;31.92;;;28.27;;
58196;SDS011;43999;51.660;5.616;2023-10-13T04:46:18;35.47;;;26.50;;
58196;SDS011;43999;51.660;5.616;2023-10-13T04:49:30;42.90;;;29.30;;
58196;SDS011;43999;51.660;5.616;2023-10-13T04:52:29;31.60;;;27.83;;
58196;SDS011;43999;51.660;5.616;2023-10-13T04:55:48;32.50;;;26.85;;
58196;SDS011;43999;51.660;5.616;2023-10-13T04:58:48;31.20;;;27.42;;
58196;SDS011;43999;51.660;5.616;2023-10-13T05:01:55;31.30;;;26.40;;
58196;SDS011;43999;51.660;5.616;2023-10-13T05:07:52;26.88;;;22.42;;
58196;SDS011;43999;51.660;5.616;2023-10-13T05:11:05;29.08;;;24.85;;
58196;SDS011;43999;51.660;5.616;2023-10-13T05:14:21;24.92;;;21.40;;
58196;SDS011;43999;51.660;5.616;2023-10-13T05:17:29;27.60;;;24.65;;
58196;SDS011;43999;51.660;5.616;2023-10-13T05:20:37;23.95;;;20.50;;
58196;SDS011;43999;51.660;5.616;2023-10-13T05:23:44;22.02;;;19.60;;
58196;SDS011;43999;51.660;5.616;2023-10-13T05:26:51;22.55;;;19.15;;
58196;SDS011;43999;51.660;5.616;2023-10-13T05:29:59;21.83;;;18.15;;
58196;SDS011;43999;51.660;5.616;2023-10-13T05:33:07;17.98;;;16.08;;
58196;SDS011;43999;51.660;5.616;2023-10-13T05:36:13;17.88;;;16.00;;
58196;SDS011;43999;51.660;5.616;2023-10-13T05:39:20;17.80;;;16.05;;
58196;SDS011;43999;51.660;5.616;2023-10-13T05:42:30;18.73;;;16.73;;
58196;SDS011;43999;51.660;5.616;2023-10-13T05:45:37;18.60;;;16.70;;
58196;SDS011;43999;51.660;5.616;2023-10-13T05:48:43;18.25;;;15.75;;
58196;SDS011;43999;51.660;5.616;2023-10-13T05:51:50;15.13;;;13.50;;
58196;SDS011;43999;51.660;5.616;2023-10-13T05:55:07;16.23;;;13.32;;
58196;SDS011;43999;51.660;5.616;2023-10-13T05:58:14;15.35;;;14.00;;
58196;SDS011;43999;51.660;5.616;2023-10-13T06:01:22;17.30;;;14.60;;
58196;SDS011;43999;51.660;5.616;2023-10-13T06:04:29;14.45;;;12.77;;
58196;SDS011;43999;51.660;5.616;2023-10-13T06:07:36;13.93;;;12.57;;
58196;SDS011;43999;51.660;5.616;2023-10-13T06:10:43;15.38;;;13.70;;
58196;SDS011;43999;51.660;5.616;2023-10-13T06:13:52;16.27;;;12.88;;
58196;SDS011;43999;51.660;5.616;2023-10-13T06:16:58;15.38;;;13.80;;
58196;SDS011;43999;51.660;5.616;2023-10-13T06:20:08;16.60;;;15.05;;
58196;SDS011;43999;51.660;5.616;2023-10-13T06:23:15;15.15;;;12.50;;
58196;SDS011;43999;51.660;5.616;2023-10-13T06:26:22;15.63;;;13.73;;
58196;SDS011;43999;51.660;5.616;2023-10-13T06:29:28;15.15;;;13.68;;
58196;SDS011;43999;51.660;5.616;2023-10-13T06:32:17;14.63;;;13.13;;
58196;SDS011;43999;51.660;5.616;2023-10-13T06:35:07;15.05;;;13.75;;
58196;SDS011;43999;51.660;5.616;2023-10-13T06:37:56;18.08;;;13.68;;
58196;SDS011;43999;51.660;5.616;2023-10-13T06:40:47;13.10;;;11.82;;
58196;SDS011;43999;51.660;5.616;2023-10-13T06:43:37;14.70;;;13.18;;
58196;SDS011;43999;51.660;5.616;2023-10-13T06:46:29;17.48;;;13.85;;
58196;SDS011;43999;51.660;5.616;2023-10-13T06:49:21;17.13;;;13.50;;
58196;SDS011;43999;51.660;5.616;2023-10-13T06:52:09;15.50;;;13.45;;
58196;SDS011;43999;51.660;5.616;2023-10-13T06:54:59;16.67;;;12.20;;
58196;SDS011;43999;51.660;5.616;2023-10-13T06:57:57;13.70;;;12.40;;
58196;SDS011;43999;51.660;5.616;2023-10-13T07:00:47;20.08;;;14.05;;
58196;SDS011;43999;51.660;5.616;2023-10-13T07:03:42;15.98;;;12.60;;
58196;SDS011;43999;51.660;5.616;2023-10-13T07:06:30;16.83;;;13.20;;
58196;SDS011;43999;51.660;5.616;2023-10-13T07:09:18;16.45;;;11.98;;
58196;SDS011;43999;51.660;5.616;2023-10-13T07:12:21;17.05;;;12.77;;
58196;SDS011;43999;51.660;5.616;2023-10-13T07:15:12;16.58;;;11.02;;
58196;SDS011;43999;51.660;5.616;2023-10-13T07:18:03;13.95;;;12.35;;
58196;SDS011;43999;51.660;5.616;2023-10-13T07:20:52;20.33;;;14.13;;
58196;SDS011;43999;51.660;5.616;2023-10-13T07:23:44;19.67;;;11.85;;
58196;SDS011;43999;51.660;5.616;2023-10-13T07:26:47;13.77;;;11.63;;
58196;SDS011;43999;51.660;5.616;2023-10-13T07:29:44;16.53;;;11.13;;
58196;SDS011;43999;51.660;5.616;2023-10-13T07:32:32;15.18;;;11.32;;
58196;SDS011;43999;51.660;5.616;2023-10-13T07:35:21;18.17;;;12.43;;
58196;SDS011;43999;51.660;5.616;2023-10-13T07:38:12;18.58;;;10.50;;
58196;SDS011;43999;51.660;5.616;2023-10-13T07:41:00;14.52;;;10.60;;
58196;SDS011;43999;51.660;5.616;2023-10-13T07:43:53;15.15;;;10.10;;
58196;SDS011;43999;51.660;5.616;2023-10-13T07:46:44;12.05;;;9.93;;
58196;SDS011;43999;51.660;5.616;2023-10-13T07:49:35;12.55;;;10.50;;
58196;SDS011;43999;51.660;5.616;2023-10-13T07:52:24;17.73;;;11.80;;
58196;SDS011;43999;51.660;5.616;2023-10-13T07:55:24;12.18;;;9.93;;
58196;SDS011;43999;51.660;5.616;2023-10-13T07:58:14;18.92;;;10.98;;
58196;SDS011;43999;51.660;5.616;2023-10-13T08:01:02;17.58;;;10.68;;
58196;SDS011;43999;51.660;5.616;2023-10-13T08:04:00;14.55;;;10.95;;
58196;SDS011;43999;51.660;5.616;2023-10-13T08:06:52;14.30;;;10.82;;
58196;SDS011;43999;51.660;5.616;2023-10-13T08:09:50;14.75;;;11.10;;
58196;SDS011;43999;51.660;5.616;2023-10-13T08:12:38;15.50;;;8.85;;
58196;SDS011;43999;51.660;5.616;2023-10-13T08:15:28;15.95;;;9.50;;
58196;SDS011;43999;51.660;5.616;2023-10-13T08:18:20;15.63;;;10.35;;
58196;SDS011;43999;51.660;5.616;2023-10-13T08:21:22;12.38;;;9.48;;
58196;SDS011;43999;51.660;5.616;2023-10-13T08:24:18;18.27;;;9.98;;
58196;SDS011;43999;51.660;5.616;2023-10-13T08:27:32;18.45;;;10.65;;
58196;SDS011;43999;51.660;5.616;2023-10-13T08:30:22;11.73;;;9.38;;
58196;SDS011;43999;51.660;5.616;2023-10-13T08:33:13;12.85;;;9.55;;
58196;SDS011;43999;51.660;5.616;2023-10-13T08:36:08;10.10;;;8.77;;
58196;SDS011;43999;51.660;5.616;2023-10-13T08:39:15;16.10;;;10.15;;
58196;SDS011;43999;51.660;5.616;2023-10-13T08:42:31;10.30;;;9.25;;
58196;SDS011;43999;51.660;5.616;2023-10-13T08:45:26;15.73;;;9.98;;
58196;SDS011;43999;51.660;5.616;2023-10-13T08:48:34;18.10;;;10.47;;
58196;SDS011;43999;51.660;5.616;2023-10-13T08:51:24;11.98;;;10.70;;
58196;SDS011;43999;51.660;5.616;2023-10-13T08:54:37;15.25;;;10.50;;
58196;SDS011;43999;51.660;5.616;2023-10-13T08:57:32;16.42;;;8.75;;
58196;SDS011;43999;51.660;5.616;2023-10-13T09:00:21;17.25;;;9.73;;
58196;SDS011;43999;51.660;5.616;2023-10-13T09:03:27;12.32;;;9.13;;
58196;SDS011;43999;51.660;5.616;2023-10-13T09:06:15;17.25;;;10.90;;
58196;SDS011;43999;51.660;5.616;2023-10-13T09:09:09;12.82;;;9.43;;
58196;SDS011;43999;51.660;5.616;2023-10-13T09:12:15;13.50;;;11.07;;
58196;SDS011;43999;51.660;5.616;2023-10-13T09:15:13;13.15;;;9.23;;
58196;SDS011;43999;51.660;5.616;2023-10-13T09:18:01;17.40;;;9.82;;
58196;SDS011;43999;51.660;5.616;2023-10-13T09:21:02;12.52;;;10.90;;
58196;SDS011;43999;51.660;5.616;2023-10-13T09:24:13;13.07;;;10.18;;
58196;SDS011;43999;51.660;5.616;2023-10-13T09:27:20;12.90;;;10.25;;
58196;SDS011;43999;51.660;5.616;2023-10-13T09:30:08;20.60;;;10.88;;
58196;SDS011;43999;51.660;5.616;2023-10-13T09:33:10;13.55;;;9.23;;
58196;SDS011;43999;51.660;5.616;2023-10-13T09:36:04;14.18;;;10.38;;
58196;SDS011;43999;51.660;5.616;2023-10-13T09:38:53;13.00;;;8.65;;
58196;SDS011;43999;51.660;5.616;2023-10-13T09:42:16;19.00;;;10.82;;
58196;SDS011;43999;51.660;5.616;2023-10-13T09:45:07;11.63;;;9.75;;
58196;SDS011;43999;51.660;5.616;2023-10-13T09:48:01;15.80;;;10.13;;
58196;SDS011;43999;51.660;5.616;2023-10-13T09:51:03;15.52;;;9.55;;
58196;SDS011;43999;51.660;5.616;2023-10-13T09:53:58;13.82;;;8.98;;
58196;SDS011;43999;51.660;5.616;2023-10-13T09:57:10;13.63;;;8.65;;
58196;SDS011;43999;51.660;5.616;2023-10-13T10:00:08;15.38;;;8.88;;
58196;SDS011;43999;51.660;5.616;2023-10-13T10:03:19;13.90;;;8.85;;
58196;SDS011;43999;51.660;5.616;2023-10-13T10:06:25;14.00;;;9.85;;
58196;SDS011;43999;51.660;5.616;2023-10-13T10:09:17;13.75;;;9.73;;
58196;SDS011;43999;51.660;5.616;2023-10-13T10:18:21;11.18;;;8.68;;
58196;SDS011;43999;51.660;5.616;2023-10-13T10:21:12;10.60;;;9.52;;
58196;SDS011;43999;51.660;5.616;2023-10-13T10:24:12;10.15;;;8.65;;
58196;SDS011;43999;51.660;5.616;2023-10-13T10:27:03;15.02;;;9.70;;
58196;SDS011;43999;51.660;5.616;2023-10-13T10:29:53;13.07;;;10.40;;
58196;SDS011;43999;51.660;5.616;2023-10-13T10:32:44;16.67;;;9.55;;
58196;SDS011;43999;51.660;5.616;2023-10-13T10:38:32;14.35;;;9.85;;
58196;SDS011;43999;51.660;5.616;2023-10-13T10:41:25;22.02;;;9.77;;
58196;SDS011;43999;51.660;5.616;2023-10-13T10:44:39;15.95;;;9.48;;
58196;SDS011;43999;51.660;5.616;2023-10-13T10:47:35;12.82;;;9.27;;
58196;SDS011;43999;51.660;5.616;2023-10-13T10:50:25;15.35;;;10.82;;
58196;SDS011;43999;51.660;5.616;2023-10-13T10:53:23;15.93;;;9.75;;
58196;SDS011;43999;51.660;5.616;2023-10-13T10:56:25;14.52;;;9.02;;
58196;SDS011;43999;51.660;5.616;2023-10-13T10:59:24;14.23;;;10.13;;
58196;SDS011;43999;51.660;5.616;2023-10-13T11:02:29;10.27;;;9.23;;
58196;SDS011;43999;51.660;5.616;2023-10-13T11:05:18;12.25;;;9.10;;
58196;SDS011;43999;51.660;5.616;2023-10-13T11:08:08;14.88;;;11.35;;
58196;SDS011;43999;51.660;5.616;2023-10-13T11:11:13;18.45;;;11.35;;
58196;SDS011;43999;51.660;5.616;2023-10-13T11:14:08;11.40;;;9.63;;
58196;SDS011;43999;51.660;5.616;2023-10-13T11:17:20;15.35;;;9.57;;
58196;SDS011;43999;51.660;5.616;2023-10-13T11:20:41;12.95;;;8.77;;
58196;SDS011;43999;51.660;5.616;2023-10-13T11:23:33;18.13;;;10.02;;
58196;SDS011;43999;51.660;5.616;2023-10-13T11:26:39;14.50;;;9.63;;
58196;SDS011;43999;51.660;5.616;2023-10-13T11:32:43;18.02;;;10.43;;
58196;SDS011;43999;51.660;5.616;2023-10-13T11:35:33;22.67;;;11.82;;
58196;SDS011;43999;51.660;5.616;2023-10-13T11:38:44;15.70;;;10.32;;
58196;SDS011;43999;51.660;5.616;2023-10-13T11:41:32;19.77;;;10.85;;
58196;SDS011;43999;51.660;5.616;2023-10-13T11:44:24;18.75;;;9.73;;
58196;SDS011;43999;51.660;5.616;2023-10-13T11:47:19;16.00;;;8.95;;
58196;SDS011;43999;51.660;5.616;2023-10-13T11:50:35;13.77;;;8.35;;
58196;SDS011;43999;51.660;5.616;2023-10-13T11:53:24;14.02;;;9.80;;
58196;SDS011;43999;51.660;5.616;2023-10-13T11:56:15;12.85;;;9.52;;
58196;SDS011;43999;51.660;5.616;2023-10-13T11:59:04;14.55;;;9.48;;
58196;SDS011;43999;51.660;5.616;2023-10-13T12:01:54;12.02;;;9.27;;
58196;SDS011;43999;51.660;5.616;2023-10-13T12:05:00;13.45;;;8.98;;
58196;SDS011;43999;51.660;5.616;2023-10-13T12:08:00;14.95;;;9.45;;
58196;SDS011;43999;51.660;5.616;2023-10-13T12:10:54;13.07;;;10.75;;
58196;SDS011;43999;51.660;5.616;2023-10-13T12:14:08;15.27;;;9.40;;
58196;SDS011;43999;51.660;5.616;2023-10-13T12:17:04;18.42;;;10.77;;
58196;SDS011;43999;51.660;5.616;2023-10-13T12:19:57;17.98;;;10.40;;
58196;SDS011;43999;51.660;5.616;2023-10-13T12:22:51;15.55;;;10.38;;
58196;SDS011;43999;51.660;5.616;2023-10-13T12:25:43;19.25;;;10.10;;
58196;SDS011;43999;51.660;5.616;2023-10-13T12:28:42;13.70;;;10.43;;
58196;SDS011;43999;51.660;5.616;2023-10-13T12:31:40;14.57;;;10.60;;
58196;SDS011;43999;51.660;5.616;2023-10-13T12:34:38;18.15;;;11.30;;
58196;SDS011;43999;51.660;5.616;2023-10-13T12:38:03;19.48;;;11.75;;
58196;SDS011;43999;51.660;5.616;2023-10-13T12:41:06;16.95;;;10.77;;
58196;SDS011;43999;51.660;5.616;2023-10-13T12:47:30;17.45;;;10.93;;
58196;SDS011;43999;51.660;5.616;2023-10-13T12:50:37;16.70;;;11.10;;
58196;SDS011;43999;51.660;5.616;2023-10-13T12:53:39;15.90;;;11.13;;
58196;SDS011;43999;51.660;5.616;2023-10-13T12:56:28;14.27;;;10.23;;
58196;SDS011;43999;51.660;5.616;2023-10-13T12:59:32;14.25;;;9.68;;
58196;SDS011;43999;51.660;5.616;2023-10-13T13:02:22;20.40;;;10.45;;
58196;SDS011;43999;51.660;5.616;2023-10-13T13:05:15;16.35;;;10.18;;
58196;SDS011;43999;51.660;5.616;2023-10-13T13:08:09;15.93;;;9.90;;
58196;SDS011;43999;51.660;5.616;2023-10-13T13:11:09;21.45;;;11.48;;
58196;SDS011;43999;51.660;5.616;2023-10-13T13:14:24;14.48;;;9.88;;
58196;SDS011;43999;51.660;5.616;2023-10-13T13:20:10;13.30;;;8.60;;
58196;SDS011;43999;51.660;5.616;2023-10-13T13:23:13;19.05;;;10.20;;
58196;SDS011;43999;51.660;5.616;2023-10-13T13:26:04;18.55;;;10.05;;
58196;SDS011;43999;51.660;5.616;2023-10-13T13:29:04;17.67;;;9.07;;
58196;SDS011;43999;51.660;5.616;2023-10-13T13:31:57;13.70;;;9.23;;
58196;SDS011;43999;51.660;5.616;2023-10-13T13:34:53;16.10;;;8.23;;
58196;SDS011;43999;51.660;5.616;2023-10-13T13:37:46;12.18;;;7.47;;
58196;SDS011;43999;51.660;5.616;2023-10-13T13:40:39;14.43;;;8.02;;
58196;SDS011;43999;51.660;5.616;2023-10-13T13:43:28;10.55;;;6.63;;
58196;SDS011;43999;51.660;5.616;2023-10-13T13:46:26;12.20;;;6.95;;
58196;SDS011;43999;51.660;5.616;2023-10-13T13:49:21;13.27;;;8.73;;
58196;SDS011;43999;51.660;5.616;2023-10-13T13:52:18;14.68;;;8.18;;
58196;SDS011;43999;51.660;5.616;2023-10-13T13:55:23;11.05;;;8.80;;
58196;SDS011;43999;51.660;5.616;2023-10-13T13:58:17;14.63;;;8.00;;
58196;SDS011;43999;51.660;5.616;2023-10-13T14:01:06;17.55;;;8.77;;
58196;SDS011;43999;51.660;5.616;2023-10-13T14:04:11;16.75;;;8.65;;
58196;SDS011;43999;51.660;5.616;2023-10-13T14:07:04;11.13;;;8.93;;
58196;SDS011;43999;51.660;5.616;2023-10-13T14:09:53;13.65;;;8.77;;
58196;SDS011;43999;51.660;5.616;2023-10-13T14:12:54;14.32;;;8.85;;
58196;SDS011;43999;51.660;5.616;2023-10-13T14:15:43;13.80;;;8.40;;
58196;SDS011;43999;51.660;5.616;2023-10-13T14:18:35;10.90;;;7.22;;
58196;SDS011;43999;51.660;5.616;2023-10-13T14:21:23;16.25;;;9.48;;
58196;SDS011;43999;51.660;5.616;2023-10-13T14:24:12;11.15;;;8.05;;
58196;SDS011;43999;51.660;5.616;2023-10-13T14:27:05;14.75;;;7.90;;
58196;SDS011;43999;51.660;5.616;2023-10-13T14:29:57;18.48;;;9.23;;
58196;SDS011;43999;51.660;5.616;2023-10-13T14:32:45;16.77;;;8.32;;
58196;SDS011;43999;51.660;5.616;2023-10-13T14:35:35;18.58;;;9.40;;
58196;SDS011;43999;51.660;5.616;2023-10-13T14:38:24;14.73;;;7.72;;
58196;SDS011;43999;51.660;5.616;2023-10-13T14:41:12;12.75;;;8.15;;
58196;SDS011;43999;51.660;5.616;2023-10-13T14:43:59;11.82;;;8.60;;
58196;SDS011;43999;51.660;5.616;2023-10-13T14:46:53;16.65;;;9.20;;
58196;SDS011;43999;51.660;5.616;2023-10-13T14:49:45;14.23;;;8.10;;
58196;SDS011;43999;51.660;5.616;2023-10-13T14:52:36;12.30;;;8.35;;
58196;SDS011;43999;51.660;5.616;2023-10-13T14:55:28;16.33;;;8.80;;
58196;SDS011;43999;51.660;5.616;2023-10-13T14:58:25;16.52;;;9.32;;
58196;SDS011;43999;51.660;5.616;2023-10-13T15:01:16;13.30;;;9.10;;
58196;SDS011;43999;51.660;5.616;2023-10-13T15:04:10;13.23;;;9.23;;
58196;SDS011;43999;51.660;5.616;2023-10-13T15:06:59;14.35;;;9.20;;
58196;SDS011;43999;51.660;5.616;2023-10-13T15:09:48;15.13;;;8.10;;
58196;SDS011;43999;51.660;5.616;2023-10-13T15:12:38;17.38;;;9.25;;
58196;SDS011;43999;51.660;5.616;2023-10-13T15:15:27;13.68;;;8.65;;
58196;SDS011;43999;51.660;5.616;2023-10-13T15:18:19;16.58;;;9.35;;
58196;SDS011;43999;51.660;5.616;2023-10-13T15:21:10;14.20;;;8.80;;
58196;SDS011;43999;51.660;5.616;2023-10-13T15:24:02;17.08;;;10.43;;
58196;SDS011;43999;51.660;5.616;2023-10-13T15:27:13;13.65;;;9.75;;
58196;SDS011;43999;51.660;5.616;2023-10-13T15:30:03;15.80;;;10.70;;
58196;SDS011;43999;51.660;5.616;2023-10-13T15:32:52;19.48;;;9.68;;
58196;SDS011;43999;51.660;5.616;2023-10-13T15:35:44;13.35;;;9.18;;
58196;SDS011;43999;51.660;5.616;2023-10-13T15:38:35;13.20;;;9.70;;
58196;SDS011;43999;51.660;5.616;2023-10-13T15:41:26;16.02;;;9.27;;
58196;SDS011;43999;51.660;5.616;2023-10-13T15:44:16;19.45;;;10.07;;
58196;SDS011;43999;51.660;5.616;2023-10-13T15:47:09;10.63;;;8.85;;
58196;SDS011;43999;51.660;5.616;2023-10-13T15:50:01;12.25;;;8.60;;
58196;SDS011;43999;51.660;5.616;2023-10-13T15:52:50;13.38;;;9.35;;
58196;SDS011;43999;51.660;5.616;2023-10-13T15:55:38;12.10;;;9.82;;
58196;SDS011;43999;51.660;5.616;2023-10-13T15:58:27;15.95;;;9.15;;
58196;SDS011;43999;51.660;5.616;2023-10-13T16:01:16;14.88;;;9.13;;
58196;SDS011;43999;51.660;5.616;2023-10-13T16:04:09;14.35;;;8.55;;
58196;SDS011;43999;51.660;5.616;2023-10-13T16:07:07;16.30;;;9.35;;
58196;SDS011;43999;51.660;5.616;2023-10-13T16:09:55;15.40;;;9.50;;
58196;SDS011;43999;51.660;5.616;2023-10-13T16:12:49;11.38;;;8.85;;
58196;SDS011;43999;51.660;5.616;2023-10-13T16:15:39;13.45;;;8.18;;
58196;SDS011;43999;51.660;5.616;2023-10-13T16:18:30;12.30;;;8.57;;
58196;SDS011;43999;51.660;5.616;2023-10-13T16:21:21;20.77;;;10.07;;
58196;SDS011;43999;51.660;5.616;2023-10-13T16:24:10;15.45;;;8.38;;
58196;SDS011;43999;51.660;5.616;2023-10-13T16:27:04;16.08;;;9.40;;
58196;SDS011;43999;51.660;5.616;2023-10-13T16:29:53;16.20;;;9.10;;
58196;SDS011;43999;51.660;5.616;2023-10-13T16:32:42;12.30;;;8.63;;
58196;SDS011;43999;51.660;5.616;2023-10-13T16:35:33;19.30;;;8.75;;
58196;SDS011;43999;51.660;5.616;2023-10-13T16:38:22;12.18;;;7.97;;
58196;SDS011;43999;51.660;5.616;2023-10-13T16:41:14;17.55;;;9.18;;
58196;SDS011;43999;51.660;5.616;2023-10-13T16:44:04;10.00;;;7.88;;
58196;SDS011;43999;51.660;5.616;2023-10-13T16:46:56;11.60;;;8.02;;
58196;SDS011;43999;51.660;5.616;2023-10-13T16:49:48;15.50;;;9.20;;
58196;SDS011;43999;51.660;5.616;2023-10-13T16:52:36;12.48;;;9.50;;
58196;SDS011;43999;51.660;5.616;2023-10-13T16:55:28;17.25;;;9.55;;
58196;SDS011;43999;51.660;5.616;2023-10-13T16:58:17;13.40;;;8.88;;
58196;SDS011;43999;51.660;5.616;2023-10-13T17:01:10;16.05;;;8.95;;
58196;SDS011;43999;51.660;5.616;2023-10-13T17:04:00;11.45;;;8.95;;
58196;SDS011;43999;51.660;5.616;2023-10-13T17:06:52;15.15;;;9.25;;
58196;SDS011;43999;51.660;5.616;2023-10-13T17:09:41;16.73;;;9.60;;
58196;SDS011;43999;51.660;5.616;2023-10-13T17:12:33;15.10;;;12.93;;
58196;SDS011;43999;51.660;5.616;2023-10-13T17:15:24;15.18;;;12.30;;
58196;SDS011;43999;51.660;5.616;2023-10-13T17:18:12;17.23;;;11.75;;
58196;SDS011;43999;51.660;5.616;2023-10-13T17:21:02;13.98;;;11.77;;
58196;SDS011;43999;51.660;5.616;2023-10-13T17:23:53;12.70;;;11.38;;
58196;SDS011;43999;51.660;5.616;2023-10-13T17:26:42;15.93;;;12.77;;
58196;SDS011;43999;51.660;5.616;2023-10-13T17:29:33;13.32;;;11.30;;
58196;SDS011;43999;51.660;5.616;2023-10-13T17:32:22;14.82;;;11.25;;
58196;SDS011;43999;51.660;5.616;2023-10-13T17:35:10;15.93;;;11.38;;
58196;SDS011;43999;51.660;5.616;2023-10-13T17:37:59;13.88;;;12.00;;